createdAt,value
2018-02-06T00:00:13.246Z,1.64
2018-02-06T00:01:13.274Z,1.35
2018-02-06T00:02:13.351Z,1.25
2018-02-06T00:03:13.331Z,1.64
2018-02-06T00:04:13.356Z,1.35
2018-02-06T00:05:13.384Z,1.64
2018-02-06T00:06:13.412Z,1.25
2018-02-06T00:07:13.439Z,1.35
2018-02-06T00:08:13.480Z,1.35
2018-02-06T00:09:13.495Z,1.35
2018-02-06T00:10:13.521Z,1.44
2018-02-06T00:11:13.549Z,1.44
2018-02-06T00:12:13.577Z,1.35
2018-02-06T00:13:13.605Z,1.25
2018-02-06T00:14:13.634Z,1.35
2018-02-06T00:15:13.682Z,1.35
2018-02-06T00:16:13.688Z,1.35
2018-02-06T00:17:13.717Z,1.35
2018-02-06T00:18:13.744Z,1.35
2018-02-06T00:19:13.769Z,1.35
2018-02-06T00:20:13.801Z,1.35
2018-02-06T00:21:13.825Z,1.44
2018-02-06T00:22:13.852Z,1.44
2018-02-06T00:23:13.880Z,1.35
2018-02-06T00:24:13.908Z,1.25
2018-02-06T00:25:13.936Z,1.25
2018-02-06T00:26:13.962Z,1.15
2018-02-06T00:27:13.990Z,1.25
2018-02-06T00:28:14.017Z,1.35
2018-02-06T00:29:14.045Z,1.35
2018-02-06T00:30:14.072Z,1.44
2018-02-06T00:31:14.101Z,1.44
2018-02-06T00:32:14.139Z,1.44
2018-02-06T00:33:14.155Z,1.35
2018-02-06T00:34:14.182Z,1.44
2018-02-06T00:35:14.263Z,1.25
2018-02-06T00:36:14.238Z,1.35
2018-02-06T00:37:14.267Z,1.25
2018-02-06T00:38:14.292Z,1.35
2018-02-06T00:39:14.398Z,1.44
2018-02-06T00:40:14.347Z,1.25
2018-02-06T00:41:14.375Z,1.35
2018-02-06T00:42:14.402Z,1.25
2018-02-06T00:43:14.430Z,1.25
2018-02-06T00:44:14.465Z,1.44
2018-02-06T00:45:14.485Z,1.44
2018-02-06T00:46:14.512Z,1.15
2018-02-06T00:47:14.568Z,1.44
2018-02-06T00:48:14.584Z,1.35
2018-02-06T00:49:14.596Z,1.35
2018-02-06T00:50:14.622Z,1.44
2018-02-06T00:51:14.650Z,1.35
2018-02-06T00:52:14.680Z,1.54
2018-02-06T00:53:14.706Z,1.35
2018-02-06T00:54:14.731Z,1.35
2018-02-06T00:55:14.759Z,1.54
2018-02-06T00:56:14.789Z,1.35
2018-02-06T00:57:14.817Z,1.35
2018-02-06T00:58:14.843Z,1.35
2018-02-06T00:59:14.871Z,1.15
2018-02-06T01:00:14.900Z,1.54
2018-02-06T01:01:14.925Z,1.25
2018-02-06T01:02:14.953Z,1.35
2018-02-06T01:03:14.980Z,1.25
2018-02-06T01:04:15.008Z,1.44
2018-02-06T01:05:15.051Z,1.35
2018-02-06T01:06:15.063Z,1.25
2018-02-06T01:07:15.091Z,1.25
2018-02-06T01:08:15.118Z,1.35
2018-02-06T01:09:15.146Z,1.44
2018-02-06T01:10:15.210Z,1.35
2018-02-06T01:11:15.201Z,1.35
2018-02-06T01:12:15.228Z,1.54
2018-02-06T01:13:15.256Z,1.25
2018-02-06T01:14:15.283Z,1.35
2018-02-06T01:15:15.310Z,1.35
2018-02-06T01:16:15.338Z,1.25
2018-02-06T01:17:15.394Z,1.35
2018-02-06T01:18:15.392Z,1.35
2018-02-06T01:19:15.422Z,1.25
2018-02-06T01:20:15.470Z,1.44
2018-02-06T01:21:15.489Z,1.44
2018-02-06T01:22:15.502Z,1.44
2018-02-06T01:23:15.530Z,1.44
2018-02-06T01:24:15.558Z,1.44
2018-02-06T01:25:15.585Z,1.44
2018-02-06T01:26:15.613Z,1.25
2018-02-06T01:27:15.643Z,1.35
2018-02-06T01:28:15.669Z,1.35
2018-02-06T01:29:15.696Z,1.54
2018-02-06T01:30:15.722Z,1.06
2018-02-06T01:31:15.750Z,1.06
2018-02-06T01:32:15.779Z,1.06
2018-02-06T01:33:15.807Z,1.06
2018-02-06T01:34:15.833Z,1.06
2018-02-06T01:35:15.863Z,1.15
2018-02-06T01:36:15.888Z,1.06
2018-02-06T01:37:15.915Z,1.15
2018-02-06T01:38:15.943Z,1.06
2018-02-06T01:39:15.973Z,1.15
2018-02-06T01:40:15.998Z,1.06
2018-02-06T01:41:16.026Z,1.15
2018-02-06T01:42:16.054Z,0.96
2018-02-06T01:43:16.079Z,1.15
2018-02-06T01:44:16.109Z,1.15
2018-02-06T01:45:16.136Z,1.15
2018-02-06T01:46:16.162Z,1.06
2018-02-06T01:47:16.191Z,0.96
2018-02-06T01:48:16.219Z,1.06
2018-02-06T01:49:16.246Z,0.96
2018-02-06T01:50:16.273Z,0.96
2018-02-06T01:51:16.301Z,1.06
2018-02-06T01:52:16.328Z,1.15
2018-02-06T01:53:16.356Z,1.15
2018-02-06T01:54:16.383Z,1.15
2018-02-06T01:55:16.411Z,1.06
2018-02-06T01:56:16.438Z,0.87
2018-02-06T01:57:16.466Z,0.96
2018-02-06T01:58:16.492Z,1.15
2018-02-06T01:59:16.522Z,1.15
2018-02-06T02:00:16.548Z,1.15
2018-02-06T02:01:16.576Z,1.06
2018-02-06T02:02:16.603Z,1.15
2018-02-06T02:03:16.631Z,1.06
2018-02-06T02:04:16.658Z,0.96
2018-02-06T02:05:16.685Z,1.06
2018-02-06T02:06:16.716Z,1.15
2018-02-06T02:07:16.740Z,1.15
2018-02-06T02:08:16.768Z,0.96
2018-02-06T02:09:16.797Z,0.87
2018-02-06T02:10:16.833Z,0.96
2018-02-06T02:11:16.851Z,1.06
2018-02-06T02:12:16.879Z,0.96
2018-02-06T02:13:16.938Z,0.87
2018-02-06T02:14:16.938Z,0.87
2018-02-06T02:15:16.960Z,0.96
2018-02-06T02:16:16.988Z,0.87
2018-02-06T02:17:17.015Z,0.96
2018-02-06T02:18:17.042Z,0.96
2018-02-06T02:19:17.071Z,0.96
2018-02-06T02:20:17.097Z,0.87
2018-02-06T02:21:17.126Z,0.96
2018-02-06T02:22:17.152Z,1.06
2018-02-06T02:23:17.179Z,1.15
2018-02-06T02:24:17.208Z,0.96
2018-02-06T02:25:17.235Z,1.06
2018-02-06T02:26:17.262Z,1.06
2018-02-06T02:27:17.290Z,1.15
2018-02-06T02:28:17.318Z,1.15
2018-02-06T02:29:17.345Z,1.06
2018-02-06T02:30:17.372Z,1.06
2018-02-06T02:31:17.399Z,0.96
2018-02-06T02:32:17.427Z,0.96
2018-02-06T02:33:17.455Z,1.15
2018-02-06T02:34:17.512Z,1.06
2018-02-06T02:35:17.510Z,1.15
2018-02-06T02:36:17.539Z,1.15
2018-02-06T02:37:17.565Z,0.96
2018-02-06T02:38:17.592Z,1.06
2018-02-06T02:39:17.623Z,1.06
2018-02-06T02:40:17.647Z,1.06
2018-02-06T02:41:17.674Z,1.06
2018-02-06T04:39:20.920Z,1.25
2018-02-06T04:40:20.948Z,1.06
2018-02-06T04:41:20.976Z,1.06
2018-02-06T04:42:21.003Z,1.06
2018-02-06T04:43:21.032Z,1.25
2018-02-06T04:44:21.058Z,1.06
2018-02-06T04:45:21.086Z,1.06
2018-02-06T04:46:21.112Z,1.15
2018-02-06T04:47:21.140Z,1.06
2018-02-06T04:48:21.168Z,1.15
2018-02-06T04:49:21.196Z,1.06
2018-02-06T04:50:21.255Z,1.06
2018-02-06T04:51:21.251Z,1.15
2018-02-06T04:52:21.277Z,1.06
2018-02-06T04:53:21.311Z,1.06
2018-02-06T04:54:21.333Z,1.06
2018-02-06T04:55:21.360Z,1.06
2018-02-06T04:56:21.388Z,1.06
2018-02-06T04:57:21.416Z,0.96
2018-02-06T04:58:21.442Z,0.96
2018-02-06T04:59:21.473Z,1.15
2018-02-06T05:00:21.499Z,1.15
2018-02-06T05:01:21.526Z,1.15
2018-02-06T05:02:21.553Z,1.15
2018-02-06T05:03:21.580Z,1.15
2018-02-06T05:04:21.608Z,1.15
2018-02-06T05:05:21.636Z,1.06
2018-02-06T05:06:21.664Z,1.06
2018-02-06T05:07:21.729Z,1.25
2018-02-06T05:08:21.755Z,1.06
2018-02-06T05:09:21.747Z,1.25
2018-02-06T05:10:21.773Z,1.25
2018-02-06T05:11:21.802Z,1.15
2018-02-06T05:12:21.829Z,0.96
2018-02-06T05:13:21.877Z,1.06
2018-02-06T05:14:21.883Z,1.06
2018-02-06T05:15:21.912Z,1.06
2018-02-06T05:16:21.939Z,1.06
2018-02-06T05:17:21.967Z,1.15
2018-02-06T05:18:21.994Z,1.15
2018-02-06T05:19:22.022Z,1.15
2018-02-06T05:20:22.058Z,1.15
2018-02-06T05:21:22.092Z,0.96
2018-02-06T05:22:22.104Z,1.15
2018-02-06T05:23:22.132Z,1.15
2018-02-06T05:24:22.160Z,1.06
2018-02-06T05:25:22.200Z,1.15
2018-02-06T05:26:22.242Z,1.15
2018-02-06T05:27:22.242Z,0.96
2018-02-06T05:28:22.305Z,0.96
2018-02-06T05:29:22.298Z,1.06
2018-02-06T05:30:22.325Z,1.15
2018-02-06T05:31:22.353Z,0.96
2018-02-06T05:32:22.381Z,0.87
2018-02-06T05:33:22.408Z,0.87
2018-02-06T05:34:22.435Z,0.67
2018-02-06T05:35:22.463Z,1.06
2018-02-06T05:36:22.491Z,1.15
2018-02-06T05:37:22.519Z,1.15
2018-02-06T05:38:22.546Z,1.06
2018-02-06T05:39:22.605Z,0.96
2018-02-06T05:40:22.608Z,0.96
2018-02-06T05:41:22.651Z,0.96
2018-02-06T05:42:22.655Z,1.06
2018-02-06T05:43:22.683Z,1.06
2018-02-06T05:44:22.711Z,0.96
2018-02-06T05:45:22.760Z,0.96
2018-02-06T05:46:22.795Z,0.96
2018-02-06T05:47:22.794Z,1.06
2018-02-06T05:48:22.822Z,1.15
2018-02-06T05:49:22.853Z,1.06
2018-02-06T05:50:22.879Z,1.06
2018-02-06T05:51:22.904Z,0.87
2018-02-06T05:52:22.964Z,1.06
2018-02-06T05:53:22.961Z,1.15
2018-02-06T05:54:22.997Z,1.25
2018-02-06T05:55:23.032Z,0.87
2018-02-06T05:56:23.045Z,1.25
2018-02-06T05:57:23.070Z,1.44
2018-02-06T05:58:23.098Z,1.44
2018-02-06T05:59:23.127Z,1.25
2018-02-06T06:00:23.156Z,1.25
2018-02-06T06:01:23.182Z,1.15
2018-02-06T06:02:23.208Z,1.54
2018-02-06T06:03:23.235Z,1.54
2018-02-06T06:04:23.264Z,1.35
2018-02-06T06:05:23.291Z,1.35
2018-02-06T06:06:23.339Z,1.45
2018-02-06T06:07:23.346Z,1.35
2018-02-06T06:08:23.374Z,1.45
2018-02-06T06:09:23.402Z,1.64
2018-02-06T06:10:23.430Z,1.64
2018-02-06T06:11:23.457Z,1.64
2018-02-06T06:12:23.491Z,1.45
2018-02-06T06:13:23.513Z,1.45
2018-02-06T06:14:23.540Z,1.54
2018-02-06T06:15:23.619Z,1.54
2018-02-06T06:16:23.596Z,1.54
2018-02-06T06:17:23.625Z,1.45
2018-02-06T06:18:23.650Z,1.45
2018-02-06T06:19:23.679Z,1.45
2018-02-06T06:20:23.706Z,1.54
2018-02-06T06:21:23.735Z,1.45
2018-02-06T06:22:23.776Z,1.54
2018-02-06T06:23:23.792Z,1.54
2018-02-06T06:24:23.818Z,1.54
2018-02-06T06:25:23.846Z,1.45
2018-02-06T06:26:23.891Z,1.35
2018-02-06T06:27:23.903Z,1.54
2018-02-06T06:28:23.929Z,1.44
2018-02-06T06:29:23.957Z,1.44
2018-02-06T06:30:23.984Z,1.54
2018-02-06T06:31:24.012Z,1.64
2018-02-06T06:32:24.039Z,1.44
2018-02-06T06:33:24.067Z,2.12
2018-02-06T06:34:24.094Z,1.45
2018-02-06T06:35:24.122Z,1.83
2018-02-06T06:36:24.186Z,1.93
2018-02-06T06:37:24.180Z,1.45
2018-02-06T06:38:24.205Z,1.64
2018-02-06T06:39:24.277Z,1.83
2018-02-06T06:40:24.261Z,1.73
2018-02-06T06:41:24.289Z,1.54
2018-02-06T06:42:24.318Z,1.92
2018-02-06T06:43:24.344Z,1.64
2018-02-06T06:44:24.372Z,1.54
2018-02-06T06:45:24.406Z,1.54
2018-02-06T06:46:24.433Z,1.54
2018-02-06T06:47:24.455Z,1.54
2018-02-06T06:48:24.509Z,1.54
2018-02-06T06:49:24.528Z,1.54
2018-02-06T06:50:24.539Z,1.45
2018-02-06T06:51:24.566Z,1.54
2018-02-06T06:52:24.633Z,1.54
2018-02-06T06:53:24.623Z,1.54
2018-02-06T06:54:24.656Z,2.12
2018-02-06T06:55:24.703Z,1.83
2018-02-06T06:56:25.382Z,1.83
2018-02-06T06:57:24.734Z,1.73
2018-02-06T06:58:24.778Z,1.73
2018-02-06T06:59:24.789Z,1.64
2018-02-06T07:00:24.816Z,1.83
2018-02-06T07:01:24.844Z,1.83
2018-02-06T07:02:24.877Z,1.73
2018-02-06T07:03:24.899Z,2.22
2018-02-06T07:04:24.929Z,2.22
2018-02-06T07:05:24.954Z,2.12
2018-02-06T07:06:24.982Z,1.73
2018-02-06T07:07:25.010Z,2.22
2018-02-06T07:08:25.038Z,2.12
2018-02-06T07:09:25.069Z,2.12
2018-02-06T07:10:25.093Z,2.12
2018-02-06T07:11:25.122Z,2.12
2018-02-06T07:12:25.150Z,2.12
2018-02-06T07:13:25.177Z,1.64
2018-02-06T07:14:25.206Z,1.73
2018-02-06T07:15:25.232Z,1.73
2018-02-06T07:16:25.260Z,1.73
2018-02-06T07:17:25.289Z,1.64
2018-02-06T07:18:25.317Z,1.83
2018-02-06T07:19:25.343Z,1.83
2018-02-06T07:20:25.373Z,1.73
2018-02-06T07:21:25.411Z,1.83
2018-02-06T07:22:25.427Z,1.73
2018-02-06T07:23:25.455Z,1.93
2018-02-06T07:24:25.484Z,1.73
2018-02-06T07:25:25.511Z,1.93
2018-02-06T07:26:25.542Z,1.73
2018-02-06T07:27:25.570Z,1.93
2018-02-06T07:28:25.595Z,1.83
2018-02-06T07:29:25.622Z,1.93
2018-02-06T07:30:26.333Z,1.83
2018-02-06T07:31:25.677Z,1.83
2018-02-06T07:32:25.705Z,1.93
2018-02-06T07:33:25.734Z,1.83
2018-02-06T07:34:25.764Z,1.83
2018-02-06T07:35:25.788Z,1.83
2018-02-06T07:36:25.818Z,1.73
2018-02-06T07:37:25.846Z,1.83
2018-02-06T07:38:25.872Z,1.83
2018-02-06T07:39:25.900Z,1.83
2018-02-06T07:40:25.964Z,1.73
2018-02-06T07:41:25.979Z,1.64
2018-02-06T07:42:25.990Z,1.83
2018-02-06T07:43:26.013Z,2.12
2018-02-06T07:44:26.039Z,1.73
2018-02-06T07:45:26.067Z,2.22
2018-02-06T07:46:26.094Z,2.22
2018-02-06T07:47:26.122Z,2.22
2018-02-06T07:48:26.150Z,2.31
2018-02-06T07:49:26.212Z,2.02
2018-02-06T07:50:26.210Z,2.03
2018-02-06T07:51:26.237Z,2.02
2018-02-06T07:52:26.261Z,2.12
2018-02-06T07:53:26.290Z,2.31
2018-02-06T07:54:26.318Z,2.22
2018-02-06T07:55:26.346Z,2.41
2018-02-06T07:56:26.384Z,2.31
2018-02-06T07:57:26.401Z,2.22
2018-02-06T07:58:26.429Z,2.12
2018-02-06T07:59:26.457Z,2.22
2018-02-06T08:00:26.485Z,2.22
2018-02-06T08:01:26.513Z,2.12
2018-02-06T08:02:26.543Z,2.31
2018-02-06T08:03:26.568Z,2.31
2018-02-06T08:04:26.595Z,2.31
2018-02-06T08:05:26.625Z,2.31
2018-02-06T08:06:26.652Z,2.12
2018-02-06T08:07:26.680Z,2.31
2018-02-06T08:08:26.708Z,2.31
2018-02-06T08:09:26.736Z,2.22
2018-02-06T08:10:26.764Z,2.12
2018-02-06T08:11:26.790Z,2.31
2018-02-06T08:12:26.821Z,2.31
2018-02-06T08:13:26.847Z,2.22
2018-02-06T08:14:26.895Z,2.22
2018-02-06T08:15:26.902Z,2.22
2018-02-06T08:16:26.931Z,2.31
2018-02-06T08:17:26.959Z,2.31
2018-02-06T08:18:26.999Z,2.22
2018-02-06T08:19:27.014Z,2.22
2018-02-06T08:20:27.043Z,2.22
2018-02-06T08:21:27.071Z,2.31
2018-02-06T08:22:27.099Z,2.22
2018-02-06T08:23:27.126Z,2.22
2018-02-06T08:24:27.154Z,2.31
2018-02-06T08:25:27.182Z,2.31
2018-02-06T08:26:27.209Z,2.31
2018-02-06T08:27:27.238Z,2.22
2018-02-06T08:28:27.266Z,2.22
2018-02-06T08:29:27.295Z,2.31
2018-02-06T08:30:27.322Z,2.31
2018-02-06T08:31:27.349Z,2.31
2018-02-06T08:32:27.377Z,2.31
2018-02-06T08:33:27.407Z,2.12
2018-02-06T08:34:27.434Z,2.22
2018-02-06T08:35:27.464Z,2.12
2018-02-06T08:36:27.533Z,2.12
2018-02-06T08:37:27.519Z,2.12
2018-02-06T08:38:27.544Z,2.12
2018-02-06T08:39:27.573Z,2.41
2018-02-06T08:40:27.602Z,2.22
2018-02-06T08:41:27.630Z,2.50
2018-02-06T08:42:27.655Z,2.50
2018-02-06T08:43:27.705Z,2.70
2018-02-06T08:44:27.713Z,2.60
2018-02-06T08:45:27.742Z,2.70
2018-02-06T08:46:27.768Z,2.50
2018-02-06T08:47:27.796Z,2.89
2018-02-06T08:48:27.824Z,2.89
2018-02-06T08:49:27.853Z,3.08
2018-02-06T08:50:27.883Z,2.98
2018-02-06T08:51:27.924Z,3.38
2018-02-06T08:52:27.938Z,3.18
2018-02-06T08:53:27.965Z,3.38
2018-02-06T08:54:27.995Z,3.47
2018-02-06T08:55:28.019Z,3.47
2018-02-06T08:56:28.047Z,3.18
2018-02-06T08:57:28.076Z,3.38
2018-02-06T08:58:28.102Z,3.47
2018-02-06T08:59:28.130Z,3.38
2018-02-06T09:00:28.159Z,3.47
2018-02-06T09:01:28.186Z,3.28
2018-02-06T09:02:28.215Z,3.08
2018-02-06T09:03:28.241Z,3.18
2018-02-06T09:04:28.271Z,3.09
2018-02-06T09:05:28.300Z,3.28
2018-02-06T09:06:28.326Z,3.38
2018-02-06T09:07:28.355Z,3.18
2018-02-06T09:08:28.384Z,2.99
2018-02-06T09:09:28.451Z,3.09
2018-02-06T09:10:28.436Z,3.09
2018-02-06T09:11:28.464Z,2.80
2018-02-06T09:12:28.492Z,2.99
2018-02-06T09:13:28.521Z,3.18
2018-02-06T09:14:28.562Z,3.09
2018-02-06T09:15:28.576Z,3.09
2018-02-06T09:16:28.623Z,3.28
2018-02-06T09:17:28.633Z,3.09
2018-02-06T09:18:28.661Z,3.38
2018-02-06T09:19:28.688Z,3.47
2018-02-06T09:20:28.715Z,3.47
2018-02-06T09:21:28.798Z,3.18
2018-02-06T09:22:28.771Z,3.28
2018-02-06T09:23:28.800Z,3.28
2018-02-06T09:24:28.828Z,3.18
2018-02-06T09:25:28.856Z,3.38
2018-02-06T09:26:28.904Z,3.47
2018-02-06T09:27:28.916Z,3.38
2018-02-06T09:28:28.940Z,3.47
2018-02-06T09:29:28.991Z,3.09
2018-02-06T09:30:29.051Z,3.18
2018-02-06T09:31:29.025Z,3.18
2018-02-06T09:32:29.051Z,3.09
2018-02-06T09:33:29.079Z,3.47
2018-02-06T09:34:29.106Z,3.38
2018-02-06T09:35:29.135Z,3.38
2018-02-06T09:36:29.164Z,3.09
2018-02-06T09:37:29.193Z,3.18
2018-02-06T09:38:29.223Z,3.09
2018-02-06T09:39:29.251Z,2.89
2018-02-06T09:40:29.277Z,3.19
2018-02-06T09:41:29.305Z,3.09
2018-02-06T09:42:29.331Z,3.19
2018-02-06T09:43:29.361Z,3.19
2018-02-06T09:44:29.387Z,3.09
2018-02-06T09:45:29.429Z,3.19
2018-02-06T09:46:29.445Z,3.09
2018-02-06T09:47:29.486Z,3.09
2018-02-06T09:48:29.499Z,3.09
2018-02-06T09:49:29.530Z,3.38
2018-02-06T09:50:29.559Z,3.19
2018-02-06T09:51:29.586Z,3.28
2018-02-06T09:52:29.614Z,3.28
2018-02-06T09:53:29.641Z,3.47
2018-02-06T09:54:29.669Z,3.18
2018-02-06T09:55:29.735Z,3.19
2018-02-06T09:56:29.724Z,3.28
2018-02-06T09:57:29.763Z,3.57
2018-02-06T09:58:29.781Z,3.86
2018-02-06T09:59:29.817Z,3.86
2018-02-06T10:00:29.841Z,3.57
2018-02-06T10:01:29.868Z,3.86
2018-02-06T10:02:29.893Z,3.86
2018-02-06T10:03:29.923Z,3.76
2018-02-06T10:04:29.956Z,3.76
2018-02-06T10:05:30.008Z,3.86
2018-02-06T10:06:30.007Z,3.47
2018-02-06T10:07:30.056Z,3.86
2018-02-06T10:08:30.061Z,3.76
2018-02-06T10:09:30.089Z,3.76
2018-02-06T10:10:30.116Z,3.76
2018-02-06T10:11:30.147Z,3.76
2018-02-06T10:12:30.173Z,3.86
2018-02-06T10:13:30.200Z,3.76
2018-02-06T10:14:30.228Z,3.96
2018-02-06T10:15:30.257Z,4.25
2018-02-06T10:16:30.328Z,4.24
2018-02-06T10:17:30.312Z,4.05
2018-02-06T10:18:30.340Z,4.25
2018-02-06T10:19:30.367Z,4.15
2018-02-06T10:20:30.404Z,4.25
2018-02-06T10:21:30.442Z,3.96
2018-02-06T10:22:30.453Z,4.53
2018-02-06T10:23:30.484Z,4.44
2018-02-06T10:24:30.523Z,3.96
2018-02-06T10:25:30.538Z,4.44
2018-02-06T10:26:30.589Z,3.96
2018-02-06T10:27:30.591Z,3.96
2018-02-06T10:28:30.624Z,4.15
2018-02-06T10:29:30.675Z,4.05
2018-02-06T10:30:30.681Z,3.76
2018-02-06T10:31:30.712Z,3.76
2018-02-06T10:32:31.418Z,3.96
2018-02-06T10:33:30.760Z,3.86
2018-02-06T10:34:30.797Z,3.86
2018-02-06T10:35:30.816Z,3.86
2018-02-06T10:36:30.844Z,3.76
2018-02-06T10:37:30.877Z,3.67
2018-02-06T10:38:30.900Z,3.57
2018-02-06T10:39:30.930Z,3.47
2018-02-06T10:40:30.990Z,3.76
2018-02-06T10:41:30.988Z,3.67
2018-02-06T10:42:31.016Z,3.86
2018-02-06T10:43:31.055Z,3.86
2018-02-06T10:44:31.070Z,3.67
2018-02-06T10:45:31.101Z,3.67
2018-02-06T10:46:31.125Z,3.76
2018-02-06T10:47:31.157Z,3.67
2018-02-06T10:48:31.184Z,3.57
2018-02-06T10:49:31.210Z,3.67
2018-02-06T10:50:31.243Z,3.66
2018-02-06T10:51:31.266Z,3.57
2018-02-06T10:52:31.297Z,3.76
2018-02-06T10:53:31.357Z,3.47
2018-02-06T10:54:31.351Z,3.47
2018-02-06T10:55:31.381Z,3.57
2018-02-06T10:56:31.411Z,3.66
2018-02-06T10:57:31.462Z,3.66
2018-02-06T10:58:31.463Z,3.57
2018-02-06T10:59:31.492Z,3.57
2018-02-06T11:00:31.520Z,3.47
2018-02-06T11:01:31.548Z,3.47
2018-02-06T11:02:31.579Z,3.47
2018-02-06T11:03:31.603Z,3.47
2018-02-06T11:04:31.665Z,3.47
2018-02-06T11:05:31.669Z,3.57
2018-02-06T11:06:31.687Z,3.47
2018-02-06T11:07:31.716Z,3.47
2018-02-06T11:08:31.745Z,3.47
2018-02-06T11:09:31.777Z,3.47
2018-02-06T11:10:31.801Z,3.47
2018-02-06T11:11:31.827Z,3.47
2018-02-06T11:12:31.857Z,3.57
2018-02-06T11:13:31.885Z,3.38
2018-02-06T11:14:31.912Z,3.47
2018-02-06T11:15:31.945Z,3.67
2018-02-06T11:16:31.995Z,3.57
2018-02-06T11:17:31.997Z,3.57
2018-02-06T11:18:32.025Z,3.76
2018-02-06T11:19:32.053Z,3.67
2018-02-06T11:20:32.082Z,3.47
2018-02-06T11:21:32.109Z,3.67
2018-02-06T11:22:32.136Z,3.67
2018-02-06T11:23:32.165Z,3.76
2018-02-06T11:24:32.199Z,3.67
2018-02-06T11:25:32.222Z,3.76
2018-02-06T11:26:32.262Z,3.67
2018-02-06T11:27:32.277Z,3.67
2018-02-06T11:28:32.308Z,3.67
2018-02-06T11:29:32.334Z,3.66
2018-02-06T11:30:32.362Z,3.57
2018-02-06T11:31:32.391Z,3.67
2018-02-06T11:32:32.418Z,3.86
2018-02-06T11:33:32.448Z,3.76
2018-02-06T11:34:32.483Z,3.57
2018-02-06T11:35:32.502Z,3.96
2018-02-06T11:36:32.532Z,3.76
2018-02-06T11:37:32.591Z,3.76
2018-02-06T11:38:32.587Z,3.96
2018-02-06T11:39:32.614Z,3.66
2018-02-06T11:40:32.646Z,3.57
2018-02-06T11:41:32.672Z,3.96
2018-02-06T11:42:32.699Z,3.86
2018-02-06T11:43:32.727Z,3.76
2018-02-06T11:44:32.756Z,3.96
2018-02-06T11:45:32.822Z,3.57
2018-02-06T11:46:32.812Z,3.66
2018-02-06T11:47:32.840Z,3.66
2018-02-06T11:48:32.905Z,3.76
2018-02-06T11:49:32.899Z,3.66
2018-02-06T11:50:32.925Z,3.76
2018-02-06T11:51:32.987Z,3.66
2018-02-06T11:52:32.982Z,3.57
2018-02-06T11:53:33.009Z,3.57
2018-02-06T11:54:33.037Z,3.57
2018-02-06T11:55:33.066Z,3.76
2018-02-06T11:56:33.092Z,3.76
2018-02-06T11:57:33.122Z,3.66
2018-02-06T11:58:33.155Z,3.76
2018-02-06T11:59:33.176Z,3.57
2018-02-06T12:00:33.205Z,3.66
2018-02-06T12:01:33.233Z,3.86
2018-02-06T12:02:33.260Z,3.57
2018-02-06T12:03:33.289Z,3.57
2018-02-06T12:04:33.318Z,3.57
2018-02-06T12:05:33.345Z,3.86
2018-02-06T12:06:33.407Z,3.57
2018-02-06T12:07:33.400Z,3.47
2018-02-06T12:08:33.432Z,3.86
2018-02-06T12:09:33.462Z,3.57
2018-02-06T12:10:33.499Z,3.66
2018-02-06T12:11:33.513Z,3.47
2018-02-06T12:12:33.579Z,3.66
2018-02-06T12:13:33.569Z,3.57
2018-02-06T12:14:33.599Z,3.66
2018-02-06T12:15:34.534Z,3.76
2018-02-06T12:16:33.653Z,3.76
2018-02-06T12:17:33.681Z,3.66
2018-02-06T12:18:33.709Z,3.76
2018-02-06T12:19:33.737Z,3.76
2018-02-06T12:20:33.765Z,3.76
2018-02-06T12:21:33.800Z,3.76
2018-02-06T12:22:33.822Z,3.66
2018-02-06T12:23:33.849Z,3.76
2018-02-06T12:24:33.877Z,3.76
2018-02-06T12:25:33.906Z,3.86
2018-02-06T12:26:33.933Z,3.66
2018-02-06T12:27:33.989Z,3.76
2018-02-06T12:28:33.989Z,3.66
2018-02-06T12:29:34.021Z,3.66
2018-02-06T12:30:34.045Z,3.76
2018-02-06T12:31:34.073Z,3.66
2018-02-06T12:32:34.103Z,3.86
2018-02-06T12:33:34.129Z,3.76
2018-02-06T12:34:34.157Z,3.47
2018-02-06T12:35:34.185Z,3.86
2018-02-06T12:36:34.213Z,3.57
2018-02-06T12:37:34.254Z,3.76
2018-02-06T12:38:34.269Z,3.76
2018-02-06T12:39:34.347Z,3.47
2018-02-06T12:40:34.328Z,3.47
2018-02-06T12:41:34.353Z,3.66
2018-02-06T12:42:34.382Z,3.66
2018-02-06T12:43:34.409Z,3.86
2018-02-06T12:44:34.436Z,3.76
2018-02-06T12:45:34.465Z,3.38
2018-02-06T12:46:34.493Z,3.47
2018-02-06T12:47:34.525Z,3.57
2018-02-06T12:48:34.615Z,3.47
2018-02-06T12:49:34.585Z,3.57
2018-02-06T12:50:34.604Z,3.38
2018-02-06T12:51:34.634Z,3.47
2018-02-06T12:52:34.661Z,3.38
2018-02-06T12:53:34.693Z,3.28
2018-02-06T12:54:34.716Z,3.38
2018-02-06T12:55:34.745Z,3.47
2018-02-06T12:56:34.773Z,3.28
2018-02-06T12:57:34.814Z,3.28
2018-02-06T12:58:34.828Z,3.28
2018-02-06T12:59:34.861Z,3.38
2018-02-06T13:00:34.886Z,3.38
2018-02-06T13:01:34.916Z,3.18
2018-02-06T13:02:34.941Z,3.28
2018-02-06T13:03:35.009Z,3.18
2018-02-06T13:04:34.998Z,3.18
2018-02-06T13:05:35.026Z,3.18
2018-02-06T13:06:35.056Z,3.18
2018-02-06T13:07:35.080Z,3.18
2018-02-06T13:08:35.108Z,3.28
2018-02-06T13:09:35.137Z,3.18
2018-02-06T13:10:35.164Z,3.28
2018-02-06T13:11:35.192Z,3.38
2018-02-06T13:12:35.221Z,3.38
2018-02-06T13:13:35.250Z,3.38
2018-02-06T13:14:35.276Z,3.28
2018-02-06T13:15:35.305Z,3.47
2018-02-06T13:16:35.332Z,3.47
2018-02-06T13:17:35.361Z,3.47
2018-02-06T13:18:35.388Z,3.47
2018-02-06T13:19:35.415Z,3.38
2018-02-06T13:20:35.444Z,3.47
2018-02-06T13:21:35.473Z,3.47
2018-02-06T13:22:35.499Z,3.47
2018-02-06T13:23:35.528Z,3.38
2018-02-06T13:24:35.556Z,3.38
2018-02-06T13:25:35.622Z,3.38
2018-02-06T13:26:35.642Z,3.38
2018-02-06T13:27:35.644Z,3.47
2018-02-06T13:28:35.689Z,3.28
2018-02-06T13:29:35.696Z,2.98
2018-02-06T13:30:35.724Z,3.38
2018-02-06T13:31:35.752Z,3.09
2018-02-06T13:32:35.787Z,3.47
2018-02-06T13:33:35.808Z,3.08
2018-02-06T13:34:35.836Z,3.28
2018-02-06T13:35:35.865Z,3.08
2018-02-06T13:36:35.894Z,3.08
2018-02-06T13:37:35.920Z,3.18
2018-02-06T13:38:35.947Z,2.98
2018-02-06T13:39:35.976Z,2.99
2018-02-06T13:40:36.003Z,3.08
2018-02-06T13:41:36.031Z,3.08
2018-02-06T13:42:36.058Z,2.99
2018-02-06T13:43:36.087Z,3.08
2018-02-06T13:44:36.115Z,3.08
2018-02-06T13:45:36.143Z,3.08
2018-02-06T13:46:36.171Z,2.89
2018-02-06T13:47:36.198Z,3.08
2018-02-06T13:48:36.228Z,3.08
2018-02-06T13:49:36.261Z,3.28
2018-02-06T13:50:36.282Z,3.08
2018-02-06T13:51:36.312Z,3.18
2018-02-06T13:52:36.344Z,3.18
2018-02-06T13:53:36.368Z,2.80
2018-02-06T13:54:36.394Z,2.89
2018-02-06T13:55:36.422Z,2.98
2018-02-06T13:56:36.451Z,3.08
2018-02-06T13:57:36.479Z,2.89
2018-02-06T13:58:36.506Z,3.08
2018-02-06T13:59:36.535Z,2.98
2018-02-06T14:00:36.563Z,2.98
2018-02-06T14:01:36.593Z,2.89
2018-02-06T14:02:36.618Z,2.98
2018-02-06T14:03:36.670Z,2.89
2018-02-06T14:04:36.676Z,3.09
2018-02-06T14:05:36.703Z,2.89
2018-02-06T14:06:36.730Z,2.89
2018-02-06T14:07:36.759Z,2.98
2018-02-06T14:08:36.786Z,2.89
2018-02-06T14:09:36.814Z,2.89
2018-02-06T14:10:36.882Z,2.80
2018-02-06T14:11:36.870Z,2.80
2018-02-06T14:12:36.908Z,2.80
2018-02-06T14:13:36.927Z,2.80
2018-02-06T14:14:36.954Z,2.80
2018-02-06T14:15:37.069Z,2.89
2018-02-06T14:16:37.010Z,2.80
2018-02-06T14:17:37.038Z,2.89
2018-02-06T14:18:37.065Z,2.89
2018-02-06T14:19:37.093Z,2.89
2018-02-06T14:20:37.121Z,2.80
2018-02-06T14:21:37.171Z,2.98
2018-02-06T14:22:37.179Z,2.98
2018-02-06T14:23:37.205Z,2.80
2018-02-06T14:24:37.233Z,2.80
2018-02-06T14:25:37.261Z,2.80
2018-02-06T14:26:37.288Z,2.70
2018-02-06T14:27:37.318Z,2.80
2018-02-06T14:28:37.344Z,2.80
2018-02-06T14:29:37.372Z,2.80
2018-02-06T14:30:37.400Z,2.70
2018-02-06T14:31:37.436Z,2.70
2018-02-06T14:32:37.457Z,2.60
2018-02-06T14:33:37.484Z,2.89
2018-02-06T14:34:37.511Z,2.60
2018-02-06T14:35:37.539Z,2.60
2018-02-06T14:36:37.567Z,2.89
2018-02-06T14:37:37.627Z,2.60
2018-02-06T14:38:37.622Z,2.70
2018-02-06T14:39:37.654Z,2.70
2018-02-06T14:40:37.679Z,2.60
2018-02-06T14:41:37.707Z,2.70
2018-02-06T14:42:37.734Z,2.70
2018-02-06T14:43:37.762Z,2.70
2018-02-06T14:44:37.791Z,2.80
2018-02-06T14:45:37.832Z,2.80
2018-02-06T14:46:37.845Z,2.70
2018-02-06T14:47:37.873Z,2.70
2018-02-06T14:48:37.902Z,2.70
2018-02-06T14:49:37.931Z,2.60
2018-02-06T14:50:37.960Z,2.50
2018-02-06T14:51:37.985Z,2.50
2018-02-06T14:52:38.013Z,2.70
2018-02-06T14:53:38.041Z,2.70
2018-02-06T14:54:38.068Z,2.50
2018-02-06T14:55:38.096Z,2.50
2018-02-06T14:56:38.124Z,2.60
2018-02-06T14:57:38.153Z,2.60
2018-02-06T14:58:38.180Z,2.60
2018-02-06T14:59:38.208Z,2.50
2018-02-06T15:00:38.236Z,2.50
2018-02-06T15:01:38.265Z,2.50
2018-02-06T15:02:38.292Z,2.50
2018-02-06T15:03:38.320Z,2.50
2018-02-06T15:04:38.348Z,2.60
2018-02-06T15:05:38.375Z,2.70
2018-02-06T15:06:38.403Z,2.60
2018-02-06T15:07:38.431Z,2.50
2018-02-06T15:08:38.459Z,2.50
2018-02-06T15:09:38.487Z,2.50
2018-02-06T15:10:38.515Z,2.60
2018-02-06T15:11:38.542Z,2.60
2018-02-06T15:12:38.570Z,2.60
2018-02-06T15:13:38.600Z,2.60
2018-02-06T15:14:38.627Z,2.60
2018-02-06T15:15:38.654Z,2.60